Time;durP1;ratioP1;P1;durP2;ratioP2;P2;SDS_P1;SDS_P2;PMS_P1;PMS_P2;Temp;Humidity;BMP_temperature;BMP_pressure;BME280_temperature;BME280_humidity;BME280_pressure;Samples;Min_cycle;Max_cycle;Signal;HPM_P1;HPM_P2
2023/08/07 00:02:27;;;;;;;12.87;12.40;;;14.30;1.00;;;;;;4880948;29;20517;-83
2023/08/07 00:04:59;;;;;;;12.43;12.13;;;14.30;1.00;;;;;;4875041;29;21113;-82
2023/08/07 00:07:32;;;;;;;13.47;12.97;;;14.40;1.00;;;;;;4881482;29;20535;-82
2023/08/07 00:10:08;;;;;;;12.40;12.00;;;14.30;1.00;;;;;;4880709;29;21181;-80
2023/08/07 00:12:37;;;;;;;12.23;11.93;;;14.30;1.00;;;;;;4883561;29;20492;-81
2023/08/07 00:15:13;;;;;;;12.80;12.23;;;14.30;1.00;;;;;;4886577;29;20505;-82
2023/08/07 00:17:42;;;;;;;12.20;11.90;;;14.30;1.00;;;;;;4878583;29;20489;-83
2023/08/07 00:20:16;;;;;;;12.77;12.13;;;14.30;1.00;;;;;;4885002;29;20462;-82
2023/08/07 00:22:48;;;;;;;12.73;12.37;;;14.30;1.00;;;;;;4876984;29;21038;-83
2023/08/07 00:25:21;;;;;;;12.10;11.80;;;14.20;1.00;;;;;;4879955;29;20462;-84
2023/08/07 00:27:56;;;;;;;12.43;12.03;;;14.30;99.90;;;;;;4880182;29;20459;-84
2023/08/07 00:30:30;;;;;;;13.07;12.57;;;14.30;1.00;;;;;;4881036;29;20760;-83
2023/08/07 00:33:02;;;;;;;12.37;11.97;;;14.30;99.90;;;;;;4881186;29;20501;-83
2023/08/07 00:35:36;;;;;;;12.83;12.30;;;14.20;99.90;;;;;;4877798;29;20992;-84
2023/08/07 00:38:13;;;;;;;12.50;12.20;;;14.20;99.90;;;;;;4883947;29;20457;-84
2023/08/07 00:40:44;;;;;;;12.80;12.20;;;14.20;99.90;;;;;;4877732;29;20459;-84
2023/08/07 00:43:17;;;;;;;12.20;11.90;;;14.20;99.90;;;;;;4883961;29;20482;-84
2023/08/07 00:45:50;;;;;;;12.00;11.70;;;14.20;99.90;;;;;;4887378;29;20490;-85
2023/08/07 00:48:19;;;;;;;12.60;12.20;;;14.10;99.90;;;;;;4885772;29;21163;-84
2023/08/07 00:50:53;;;;;;;12.63;12.17;;;14.20;99.90;;;;;;4881364;29;20455;-84
2023/08/07 00:53:23;;;;;;;12.80;12.33;;;14.10;99.90;;;;;;4886469;29;20499;-85
2023/08/07 00:55:54;;;;;;;12.00;11.70;;;14.20;99.90;;;;;;4883150;29;20580;-82
2023/08/07 00:58:22;;;;;;;12.00;11.70;;;14.20;99.90;;;;;;4900191;29;20481;-82
2023/08/07 01:00:54;;;;;;;12.07;11.77;;;14.20;99.90;;;;;;4900928;29;20660;-83
2023/08/07 01:03:29;;;;;;;12.63;12.23;;;14.20;99.90;;;;;;4880251;29;20486;-83
2023/08/07 01:05:58;;;;;;;12.43;12.03;;;14.10;99.90;;;;;;4886341;29;20481;-84
2023/08/07 01:08:32;;;;;;;12.10;11.80;;;14.10;99.90;;;;;;4884956;29;20473;-82
2023/08/07 01:11:21;;;;;;;12.50;12.00;;;14.10;99.90;;;;;;4885232;29;20458;-84
2023/08/07 01:14:00;;;;;;;12.43;11.90;;;14.00;99.90;;;;;;4883329;29;20463;-83
2023/08/07 01:16:46;;;;;;;12.60;12.30;;;14.10;99.90;;;;;;4901951;29;20502;-85
2023/08/07 01:19:23;;;;;;;12.57;12.17;;;14.00;99.90;;;;;;4889005;29;20506;-83
2023/08/07 01:22:09;;;;;;;12.40;12.00;;;14.00;99.90;;;;;;4885935;29;20485;-84
2023/08/07 01:24:39;;;;;;;12.40;12.10;;;14.10;99.90;;;;;;4895833;29;20468;-84
2023/08/07 01:27:33;;;;;;;12.70;12.20;;;14.10;99.90;;;;;;4893422;29;20480;-83
2023/08/07 01:30:12;;;;;;;12.83;12.27;;;14.10;99.90;;;;;;4881774;29;21053;-83
2023/08/07 01:32:55;;;;;;;12.70;12.10;;;14.10;99.90;;;;;;4895458;29;20485;-83
2023/08/07 01:35:29;;;;;;;12.50;12.20;;;14.00;99.90;;;;;;4887252;29;20508;-82
2023/08/07 01:38:00;;;;;;;13.70;12.60;;;14.00;99.90;;;;;;4902108;29;20482;-83
2023/08/07 01:40:30;;;;;;;12.43;11.93;;;14.00;99.90;;;;;;4890367;29;20462;-82
2023/08/07 01:43:11;;;;;;;12.13;11.80;;;14.00;99.90;;;;;;4885889;29;20488;-84
2023/08/07 01:45:44;;;;;;;12.43;12.13;;;14.00;99.90;;;;;;4888118;29;20543;-83
2023/08/07 01:48:19;;;;;;;12.27;11.87;;;14.00;99.90;;;;;;4888797;29;21056;-83
2023/08/07 01:50:54;;;;;;;12.83;12.33;;;14.10;99.90;;;;;;4887263;29;20463;-82
2023/08/07 01:53:24;;;;;;;12.17;11.87;;;14.10;99.90;;;;;;4889450;29;21118;-83
2023/08/07 01:56:02;;;;;;;12.27;11.90;;;14.10;99.90;;;;;;4909796;29;21144;-83
2023/08/07 01:58:33;;;;;;;12.37;12.07;;;14.10;99.90;;;;;;4893227;29;20550;-83
2023/08/07 02:01:12;;;;;;;12.37;12.07;;;14.10;99.90;;;;;;4909753;29;20477;-83
2023/08/07 02:03:44;;;;;;;12.50;12.10;;;14.10;99.90;;;;;;4891993;29;20485;-82
2023/08/07 02:06:15;;;;;;;12.30;12.00;;;14.10;99.90;;;;;;4890629;29;20489;-82
2023/08/07 02:08:54;;;;;;;12.60;12.20;;;14.10;99.90;;;;;;4888081;29;20489;-82
2023/08/07 02:11:25;;;;;;;12.20;11.90;;;14.10;99.90;;;;;;4889004;29;20598;-83
2023/08/07 02:14:02;;;;;;;12.50;12.00;;;14.10;99.90;;;;;;4887954;29;20458;-82
2023/08/07 02:16:34;;;;;;;12.30;12.00;;;14.20;99.90;;;;;;4884844;29;21064;-82
2023/08/07 02:19:08;;;;;;;12.80;12.40;;;14.20;99.90;;;;;;4888792;29;20462;-83
2023/08/07 02:21:36;;;;;;;12.20;11.80;;;14.10;92.30;;;;;;4888366;29;20463;-83
2023/08/07 02:24:08;;;;;;;13.00;12.20;;;14.20;99.90;;;;;;4891269;29;20481;-84
2023/08/07 02:26:43;;;;;;;11.83;11.53;;;14.10;99.90;;;;;;4907656;29;20897;-83
2023/08/07 02:29:13;;;;;;;12.27;11.77;;;14.10;32.30;;;;;;4889559;29;20470;-84
2023/08/07 02:31:44;;;;;;;12.20;11.77;;;14.10;46.40;;;;;;4890346;29;20505;-83
2023/08/07 02:34:16;;;;;;;12.30;12.00;;;14.10;56.30;;;;;;4889799;29;20480;-83
2023/08/07 02:36:47;;;;;;;11.93;11.63;;;14.10;14.10;;;;;;4891912;29;20502;-84
2023/08/07 02:39:21;;;;;;;12.43;11.93;;;14.10;10.00;;;;;;4892619;29;20465;-84
2023/08/07 02:41:54;;;;;;;12.67;12.27;;;14.10;1.00;;;;;;4888231;29;20491;-85
2023/08/07 02:44:25;;;;;;;12.30;12.00;;;14.10;1.00;;;;;;4891343;29;20575;-84
2023/08/07 02:46:53;;;;;;;11.80;11.50;;;14.20;1.00;;;;;;4892494;29;20502;-84
2023/08/07 02:49:26;;;;;;;12.67;12.13;;;14.20;1.00;;;;;;4887819;29;21047;-82
2023/08/07 02:51:54;;;;;;;12.50;11.97;;;14.20;1.00;;;;;;4889108;29;20490;-84
2023/08/07 02:54:25;;;;;;;12.30;11.73;;;14.20;1.00;;;;;;4893040;29;20487;-84
2023/08/07 02:57:01;;;;;;;12.60;12.20;;;14.20;1.00;;;;;;4893528;29;20479;-84
2023/08/07 02:59:36;;;;;;;12.03;11.73;;;14.20;1.00;;;;;;4892461;29;20458;-83
2023/08/07 03:02:07;;;;;;;12.60;12.30;;;14.20;1.00;;;;;;4888750;29;20530;-83
2023/08/07 03:04:35;;;;;;;12.40;12.10;;;14.10;1.00;;;;;;4889240;29;20473;-83
2023/08/07 03:07:09;;;;;;;12.60;12.20;;;14.10;1.00;;;;;;4885886;29;20490;-85
2023/08/07 03:09:50;;;;;;;11.83;11.40;;;14.10;1.00;;;;;;4888002;29;20489;-82
2023/08/07 03:12:21;;;;;;;11.43;11.03;;;14.10;1.00;;;;;;4890678;29;20488;-83
2023/08/07 03:14:54;;;;;;;12.37;11.90;;;14.10;1.00;;;;;;4886833;29;20510;-81
2023/08/07 03:17:26;;;;;;;11.93;11.53;;;14.10;1.00;;;;;;4885749;29;20499;-81
2023/08/07 03:19:57;;;;;;;11.20;11.00;;;14.10;1.00;;;;;;4893025;29;21358;-83
2023/08/07 03:22:28;;;;;;;12.17;11.47;;;14.10;1.00;;;;;;4896980;29;20494;-82
2023/08/07 03:25:02;;;;;;;12.03;11.53;;;14.10;1.00;;;;;;4889864;29;20466;-82
2023/08/07 03:27:30;;;;;;;11.47;11.10;;;14.20;1.00;;;;;;4889287;29;20470;-83
2023/08/07 03:30:01;;;;;;;11.77;11.27;;;14.20;1.00;;;;;;4890088;29;20511;-83
2023/08/07 03:32:37;;;;;;;11.60;11.20;;;14.10;1.00;;;;;;4887870;29;20561;-82
2023/08/07 03:35:06;;;;;;;12.47;11.97;;;14.20;1.00;;;;;;4887932;29;20571;-83
2023/08/07 03:37:38;;;;;;;11.50;11.10;;;14.10;1.00;;;;;;4892618;29;20490;-85
2023/08/07 03:40:14;;;;;;;11.30;11.00;;;14.10;1.00;;;;;;4890305;29;20467;-83
2023/08/07 03:42:47;;;;;;;12.53;11.93;;;14.10;1.00;;;;;;4887955;29;20477;-82
2023/08/07 03:45:27;;;;;;;12.27;11.77;;;14.10;1.00;;;;;;4886190;29;20458;-83
2023/08/07 03:47:58;;;;;;;12.13;11.73;;;14.10;1.00;;;;;;4886306;29;20456;-83
2023/08/07 03:50:30;;;;;;;11.43;11.13;;;14.00;1.00;;;;;;4889336;29;20975;-83
2023/08/07 03:53:01;;;;;;;12.37;11.97;;;14.00;1.00;;;;;;4894139;29;20489;-82
2023/08/07 03:55:34;;;;;;;12.07;11.67;;;14.00;1.00;;;;;;4887086;29;20468;-83
2023/08/07 03:58:06;;;;;;;11.87;11.57;;;14.00;1.00;;;;;;4885541;29;20493;-83
2023/08/07 04:00:37;;;;;;;12.97;12.60;;;14.00;1.00;;;;;;4890915;29;20550;-83
2023/08/07 04:03:12;;;;;;;12.70;12.20;;;14.00;1.00;;;;;;4884424;29;20498;-84
2023/08/07 04:05:44;;;;;;;12.43;12.13;;;14.00;1.00;;;;;;4888786;29;20473;-83
2023/08/07 04:08:15;;;;;;;13.17;12.67;;;13.90;1.00;;;;;;4888524;29;20459;-85
2023/08/07 04:10:47;;;;;;;12.83;12.43;;;13.90;1.00;;;;;;4885906;29;20476;-83
2023/08/07 04:13:18;;;;;;;13.37;12.73;;;13.90;1.00;;;;;;4888602;29;20495;-84
2023/08/07 04:15:49;;;;;;;13.77;13.10;;;13.90;1.00;;;;;;4900161;29;20524;-84
2023/08/07 04:18:18;;;;;;;13.27;12.60;;;13.80;1.00;;;;;;4886186;29;20541;-83
2023/08/07 04:20:52;;;;;;;12.97;12.20;;;13.90;1.00;;;;;;4878537;29;20465;-83
2023/08/07 04:23:21;;;;;;;12.43;12.03;;;13.90;1.00;;;;;;4886930;29;20500;-84
2023/08/07 04:25:56;;;;;;;12.37;11.90;;;13.90;1.00;;;;;;4883697;29;20486;-85
2023/08/07 04:28:31;;;;;;;13.00;12.50;;;13.80;1.00;;;;;;4878736;29;20462;-84
2023/08/07 04:31:03;;;;;;;12.83;12.13;;;13.90;1.00;;;;;;4888306;29;20454;-85
2023/08/07 04:33:36;;;;;;;12.73;12.13;;;13.80;1.00;;;;;;4890518;29;20497;-84
2023/08/07 04:36:11;;;;;;;12.70;12.30;;;13.80;1.00;;;;;;4902611;29;20484;-84
2023/08/07 04:38:41;;;;;;;12.70;12.30;;;13.80;1.00;;;;;;4889352;29;20517;-84
2023/08/07 04:41:11;;;;;;;12.13;11.73;;;13.80;1.00;;;;;;4889308;29;20470;-82
2023/08/07 04:43:42;;;;;;;12.37;12.07;;;13.80;1.00;;;;;;4891238;29;20478;-83
2023/08/07 04:46:13;;;;;;;13.10;12.60;;;13.90;1.00;;;;;;4899937;29;20975;-83
2023/08/07 04:48:45;;;;;;;12.90;12.30;;;13.80;1.00;;;;;;4886108;29;20973;-84
2023/08/07 04:51:18;;;;;;;12.80;12.40;;;13.90;1.00;;;;;;4885436;29;20812;-84
2023/08/07 04:53:50;;;;;;;12.60;12.20;;;13.90;1.00;;;;;;4886588;29;20486;-85
2023/08/07 04:56:23;;;;;;;13.47;13.00;;;13.90;1.00;;;;;;4875571;29;21014;-82
2023/08/07 04:58:55;;;;;;;12.60;12.30;;;13.90;1.00;;;;;;4882476;29;20528;-81
2023/08/07 05:01:25;;;;;;;13.00;12.60;;;13.90;1.00;;;;;;4882906;29;21402;-83
2023/08/07 05:04:00;;;;;;;12.80;12.40;;;14.00;1.00;;;;;;4885232;29;20481;-86
2023/08/07 05:06:31;;;;;;;12.90;12.50;;;14.00;1.00;;;;;;4883286;29;20475;-84
2023/08/07 05:09:03;;;;;;;13.10;12.57;;;14.00;1.00;;;;;;4880275;29;20577;-83
2023/08/07 05:11:37;;;;;;;12.80;12.40;;;14.00;1.00;;;;;;4882768;29;20544;-84
2023/08/07 05:14:08;;;;;;;13.57;13.00;;;14.00;1.00;;;;;;4881642;29;21174;-83
2023/08/07 05:16:37;;;;;;;13.20;12.80;;;14.00;1.00;;;;;;4885215;29;21105;-84
2023/08/07 05:19:09;;;;;;;13.60;13.10;;;14.00;1.00;;;;;;4881626;29;20493;-81
2023/08/07 05:21:41;;;;;;;12.30;12.00;;;14.00;1.00;;;;;;4883592;29;20483;-80
2023/08/07 05:24:10;;;;;;;13.27;12.77;;;14.00;1.00;;;;;;4877124;29;20469;-80
2023/08/07 05:26:49;;;;;;;13.35;12.85;;;14.00;1.00;;;;;;4879186;29;20464;-82
2023/08/07 05:29:18;;;;;;;13.40;12.90;;;14.10;1.00;;;;;;4881940;29;20210;-84
2023/08/07 05:31:50;;;;;;;13.70;13.20;;;14.10;1.00;;;;;;4882361;29;20505;-84
2023/08/07 05:34:25;;;;;;;13.13;12.73;;;14.20;1.00;;;;;;4883879;29;20470;-81
2023/08/07 05:36:56;;;;;;;13.60;13.20;;;14.20;1.00;;;;;;4887360;29;20500;-82
2023/08/07 05:39:31;;;;;;;14.20;13.70;;;14.30;1.00;;;;;;4883375;29;20493;-82
2023/08/07 05:42:07;;;;;;;14.67;14.07;;;14.30;1.00;;;;;;4884233;29;20474;-82
2023/08/07 05:44:39;;;;;;;13.43;12.93;;;14.30;1.00;;;;;;4883043;29;20473;-83
2023/08/07 05:47:10;;;;;;;13.60;13.20;;;14.30;1.00;;;;;;4897661;29;20864;-83
2023/08/07 05:49:41;;;;;;;13.53;13.13;;;14.30;1.00;;;;;;4879946;29;20454;-82
2023/08/07 05:52:10;;;;;;;13.70;13.20;;;14.30;1.00;;;;;;4885113;29;20523;-84
2023/08/07 05:54:48;;;;;;;14.13;13.50;;;14.40;1.00;;;;;;4886587;29;20471;-83
2023/08/07 05:57:19;;;;;;;13.43;13.00;;;14.40;1.00;;;;;;4885583;29;20501;-84
2023/08/07 05:59:50;;;;;;;13.73;13.23;;;14.40;1.00;;;;;;4883729;29;20466;-84
2023/08/07 06:02:26;;;;;;;13.20;12.80;;;14.40;1.00;;;;;;4889560;29;20519;-84
2023/08/07 06:05:01;;;;;;;13.53;12.97;;;14.40;1.00;;;;;;4885389;29;20586;-82
2023/08/07 06:07:33;;;;;;;13.20;12.70;;;14.40;1.00;;;;;;4887161;29;20642;-83
2023/08/07 06:10:07;;;;;;;13.77;13.17;;;14.50;1.00;;;;;;4890951;29;20468;-81
2023/08/07 06:12:42;;;;;;;13.30;12.80;;;14.40;1.00;;;;;;4887228;29;20482;-84
2023/08/07 06:15:17;;;;;;;13.87;13.27;;;14.50;1.00;;;;;;4885923;29;20470;-82
2023/08/07 06:17:51;;;;;;;12.97;12.57;;;14.40;1.00;;;;;;4885338;29;20491;-82
2023/08/07 06:20:25;;;;;;;13.27;12.67;;;14.50;1.00;;;;;;4888944;29;20465;-82
2023/08/07 06:22:55;;;;;;;13.10;12.70;;;14.50;1.00;;;;;;4885858;29;20539;-82
2023/08/07 06:25:27;;;;;;;12.50;12.20;;;14.60;1.00;;;;;;4889685;29;20488;-83
2023/08/07 06:27:57;;;;;;;12.53;12.23;;;14.60;1.00;;;;;;4899583;29;20545;-83
2023/08/07 06:30:28;;;;;;;13.53;12.83;;;14.50;1.00;;;;;;4895668;29;20467;-81
2023/08/07 06:33:02;;;;;;;13.30;12.80;;;14.50;1.00;;;;;;4894021;29;20509;-80
2023/08/07 06:35:33;;;;;;;12.83;12.53;;;14.60;1.00;;;;;;4894524;29;20462;-84
2023/08/07 06:38:08;;;;;;;14.50;13.20;;;14.50;1.00;;;;;;4893514;29;20519;-84
2023/08/07 06:40:48;;;;;;;13.33;12.93;;;14.60;1.00;;;;;;4891194;29;20463;-85
2023/08/07 06:43:21;;;;;;;13.50;13.00;;;14.60;1.00;;;;;;4891064;29;20525;-83
2023/08/07 06:45:57;;;;;;;13.43;12.83;;;14.70;1.00;;;;;;4903069;29;20468;-81
2023/08/07 06:48:26;;;;;;;13.23;12.83;;;14.70;1.00;;;;;;4891769;29;20491;-81
2023/08/07 06:50:57;;;;;;;13.97;13.53;;;14.70;1.00;;;;;;4889489;29;20538;-80
2023/08/07 06:53:30;;;;;;;13.23;12.80;;;14.70;1.00;;;;;;4881931;29;21115;-80
2023/08/07 06:56:04;;;;;;;13.33;12.67;;;14.80;1.00;;;;;;4887243;29;20460;-86
2023/08/07 06:58:38;;;;;;;13.47;12.77;;;14.80;1.00;;;;;;4884938;29;20474;-83
2023/08/07 07:01:09;;;;;;;13.37;12.90;;;14.80;1.00;;;;;;4884452;29;20463;-81
2023/08/07 07:03:42;;;;;;;12.93;12.53;;;14.80;1.00;;;;;;4884480;29;20487;-83
2023/08/07 07:06:13;;;;;;;14.87;14.17;;;14.90;1.00;;;;;;4887110;29;20475;-83
2023/08/07 07:08:45;;;;;;;13.87;13.10;;;15.00;1.00;;;;;;4884112;29;20570;-81
2023/08/07 07:11:15;;;;;;;13.53;13.03;;;15.00;1.00;;;;;;4881800;29;21045;-80
2023/08/07 07:13:47;;;;;;;13.50;13.10;;;15.00;1.00;;;;;;4886177;29;20543;-82
2023/08/07 07:16:18;;;;;;;13.10;12.70;;;15.00;1.00;;;;;;4890040;29;20462;-81
2023/08/07 07:18:51;;;;;;;12.90;12.60;;;14.90;1.00;;;;;;4883627;29;20488;-82
2023/08/07 07:21:24;;;;;;;13.67;12.90;;;14.90;1.00;;;;;;4883754;29;20473;-82
2023/08/07 07:24:00;;;;;;;13.10;12.70;;;14.90;1.00;;;;;;4886286;29;21025;-81
2023/08/07 07:26:29;;;;;;;13.47;12.90;;;15.10;1.00;;;;;;4887969;29;20547;-83
2023/08/07 07:29:06;;;;;;;13.60;13.10;;;15.30;1.00;;;;;;4901892;29;20460;-82
2023/08/07 07:31:36;;;;;;;13.63;13.17;;;15.40;99.90;;;;;;4885370;29;20478;-82
2023/08/07 07:34:07;;;;;;;13.07;12.60;;;15.50;99.90;;;;;;4886216;29;20563;-82
2023/08/07 07:36:36;;;;;;;14.17;13.77;;;15.50;99.90;;;;;;4889208;29;20471;-81
2023/08/07 07:39:12;;;;;;;13.50;13.10;;;15.60;99.90;;;;;;4889730;29;20673;-83
2023/08/07 07:41:47;;;;;;;13.27;12.87;;;15.70;99.90;;;;;;4899026;29;20468;-82
2023/08/07 07:44:25;;;;;;;13.40;13.00;;;15.80;99.90;;;;;;4884144;29;20606;-82
2023/08/07 07:47:00;;;;;;;13.00;12.60;;;16.00;99.90;;;;;;4886033;29;20468;-81
2023/08/07 07:49:33;;;;;;;13.37;12.63;;;16.10;99.90;;;;;;4888674;29;20886;-85
2023/08/07 07:52:14;;;;;;;13.10;12.80;;;16.10;99.90;;;;;;4899740;23;20874;-82
2023/08/07 07:54:43;;;;;;;12.80;12.40;;;16.10;99.90;;;;;;4905609;29;20558;-84
2023/08/07 07:57:24;;;;;;;13.37;12.60;;;16.30;99.90;;;;;;4901097;29;20529;-81
2023/08/07 07:59:57;;;;;;;12.03;11.73;;;16.40;99.90;;;;;;4906090;29;20483;-83
2023/08/07 08:02:28;;;;;;;12.10;11.80;;;16.30;99.90;;;;;;4896057;29;22457;-83
2023/08/07 08:05:02;;;;;;;12.63;12.20;;;16.40;99.90;;;;;;4881220;29;20564;-82
2023/08/07 08:07:36;;;;;;;12.03;11.73;;;16.40;99.90;;;;;;4890079;29;20470;-83
2023/08/07 08:10:08;;;;;;;11.90;11.60;;;16.40;99.90;;;;;;4891508;29;20967;-82
2023/08/07 08:12:40;;;;;;;12.73;12.33;;;16.50;99.90;;;;;;4888555;29;20491;-81
2023/08/07 08:15:11;;;;;;;12.30;12.00;;;16.50;99.90;;;;;;4893228;29;21038;-82
2023/08/07 08:17:46;;;;;;;12.63;12.23;;;16.50;99.90;;;;;;4885228;29;20467;-82
2023/08/07 08:20:19;;;;;;;12.43;12.13;;;16.50;99.90;;;;;;4886887;29;20493;-81
2023/08/07 08:22:48;;;;;;;11.70;11.50;;;16.50;99.90;;;;;;4891557;29;20580;-81
2023/08/07 08:25:20;;;;;;;12.10;11.80;;;16.60;99.90;;;;;;4891778;29;20918;-85
2023/08/07 08:27:52;;;;;;;12.70;11.90;;;16.60;99.90;;;;;;4885960;29;20457;-82
2023/08/07 08:30:22;;;;;;;12.03;11.70;;;16.70;99.90;;;;;;4889378;29;20548;-82
2023/08/07 08:32:55;;;;;;;12.40;12.00;;;16.60;99.90;;;;;;4891961;29;20498;-81
2023/08/07 08:35:27;;;;;;;11.87;11.57;;;16.60;99.90;;;;;;4893095;29;21308;-83
2023/08/07 08:37:56;;;;;;;12.60;12.30;;;16.70;99.90;;;;;;4890703;29;20581;-81
2023/08/07 08:40:28;;;;;;;13.53;13.03;;;16.80;99.90;;;;;;4893600;29;20502;-81
2023/08/07 08:43:02;;;;;;;12.60;12.30;;;16.70;99.90;;;;;;4910547;29;20489;-80
2023/08/07 08:45:37;;;;;;;12.37;12.00;;;16.80;99.90;;;;;;4893661;29;20888;-82
2023/08/07 08:48:08;;;;;;;12.87;12.57;;;16.70;99.90;;;;;;4903339;29;20472;-81
2023/08/07 08:50:39;;;;;;;12.60;12.30;;;16.70;99.90;;;;;;4889846;29;20474;-82
2023/08/07 08:53:09;;;;;;;12.47;12.07;;;16.70;99.90;;;;;;4891383;29;21221;-80
2023/08/07 08:55:42;;;;;;;12.47;12.20;;;16.80;99.90;;;;;;4885183;29;20475;-82
2023/08/07 08:58:11;;;;;;;12.07;11.73;;;16.90;99.90;;;;;;4888453;29;21055;-81
2023/08/07 09:00:44;;;;;;;12.30;12.00;;;17.00;99.90;;;;;;4880945;29;20484;-80
2023/08/07 09:03:16;;;;;;;12.30;12.00;;;17.00;99.90;;;;;;4878264;29;20496;-79
2023/08/07 09:05:50;;;;;;;11.90;11.50;;;16.90;99.90;;;;;;4882998;29;20480;-80
2023/08/07 09:08:23;;;;;;;12.27;11.97;;;16.90;99.90;;;;;;4886263;29;20470;-81
2023/08/07 09:10:55;;;;;;;11.77;11.50;;;17.00;99.90;;;;;;4876706;29;20458;-81
2023/08/07 09:13:25;;;;;;;11.70;11.50;;;17.00;99.90;;;;;;4877955;29;20499;-84
2023/08/07 09:16:01;;;;;;;11.60;11.20;;;17.00;99.90;;;;;;4887363;29;20977;-82
2023/08/07 09:18:33;;;;;;;11.87;11.57;;;17.20;99.90;;;;;;4886334;29;20469;-82
2023/08/07 09:21:02;;;;;;;11.43;11.23;;;17.20;99.90;;;;;;4883679;29;20501;-83
2023/08/07 09:24:24;;;;;;;11.80;11.50;;;17.20;99.90;;;;;;4892201;29;20561;-82
2023/08/07 09:27:44;;;;;;;11.50;11.20;;;17.30;99.90;;;;;;4883674;29;20486;-82
2023/08/07 09:30:23;;;;;;;11.87;11.57;;;17.30;99.90;;;;;;4896374;29;20462;-80
2023/08/07 09:33:07;;;;;;;11.37;11.17;;;17.40;99.90;;;;;;4888443;29;21819;-80
2023/08/07 09:35:38;;;;;;;11.40;11.10;;;17.50;99.90;;;;;;4892260;29;20465;-83
2023/08/07 09:38:12;;;;;;;11.30;11.10;;;17.50;99.90;;;;;;4889891;29;20477;-82
2023/08/07 09:40:48;;;;;;;11.37;11.07;;;17.50;99.90;;;;;;4906303;29;20577;-82
2023/08/07 09:43:26;;;;;;;11.70;11.30;;;17.40;99.90;;;;;;4893998;29;20493;-81
2023/08/07 09:46:05;;;;;;;11.20;11.00;;;17.50;99.90;;;;;;4892200;29;20479;-80
2023/08/07 09:48:44;;;;;;;12.37;11.97;;;17.50;99.90;;;;;;4893513;29;20457;-82
2023/08/07 09:51:15;;;;;;;11.40;11.10;;;17.60;99.90;;;;;;4886894;29;22555;-83
2023/08/07 09:53:47;;;;;;;12.03;11.63;;;17.50;99.90;;;;;;4888407;29;21203;-82
2023/08/07 09:56:19;;;;;;;11.70;11.30;;;17.40;99.90;;;;;;4889668;29;20520;-83
2023/08/07 09:58:49;;;;;;;11.67;11.27;;;17.50;99.90;;;;;;4895716;29;20463;-83
2023/08/07 10:01:20;;;;;;;11.80;11.53;;;17.40;99.90;;;;;;4894205;29;20496;-81
2023/08/07 10:03:57;;;;;;;12.03;11.67;;;17.30;99.90;;;;;;4893522;29;20485;-80
2023/08/07 10:06:30;;;;;;;11.83;11.43;;;17.30;99.90;;;;;;4892285;29;20518;-81
2023/08/07 10:09:04;;;;;;;11.93;11.60;;;17.40;99.90;;;;;;4891297;29;20530;-82
2023/08/07 10:11:37;;;;;;;11.17;10.87;;;17.30;99.90;;;;;;4883065;29;20557;-81
2023/08/07 10:14:11;;;;;;;11.17;10.87;;;17.30;99.90;;;;;;4887678;29;20468;-81
2023/08/07 10:16:46;;;;;;;12.10;11.80;;;17.40;99.90;;;;;;4890398;29;20455;-84
2023/08/07 10:19:19;;;;;;;13.30;12.70;;;17.40;99.90;;;;;;4892353;29;20544;-81
2023/08/07 10:21:50;;;;;;;12.10;11.80;;;17.60;99.90;;;;;;4893372;29;20550;-83
2023/08/07 10:24:20;;;;;;;12.10;11.80;;;17.70;99.90;;;;;;4894469;29;20482;-83
2023/08/07 10:26:52;;;;;;;12.87;12.57;;;17.80;99.90;;;;;;4888154;29;20465;-83
2023/08/07 10:29:25;;;;;;;12.43;12.03;;;17.80;99.90;;;;;;4877270;29;20484;-81
2023/08/07 10:31:57;;;;;;;12.13;11.83;;;17.80;99.90;;;;;;4887086;29;20471;-80
2023/08/07 10:34:34;;;;;;;12.40;12.00;;;17.60;99.90;;;;;;4891678;29;20928;-80
2023/08/07 10:37:02;;;;;;;12.77;12.17;;;17.50;99.90;;;;;;4888575;29;20476;-81
2023/08/07 10:39:30;;;;;;;11.80;11.50;;;17.50;99.90;;;;;;4892373;29;20485;-81
2023/08/07 10:42:04;;;;;;;12.03;11.73;;;17.50;99.90;;;;;;4889461;29;20494;-82
2023/08/07 10:44:48;;;;;;;11.83;11.53;;;17.50;99.90;;;;;;4904087;29;20989;-81
2023/08/07 10:47:34;;;;;;;11.70;11.43;;;17.50;99.90;;;;;;4889734;29;20987;-83
2023/08/07 10:50:11;;;;;;;12.37;12.03;;;17.60;99.90;;;;;;4887998;29;20477;-80
2023/08/07 10:52:41;;;;;;;12.60;12.17;;;17.60;99.90;;;;;;4888841;29;20548;-82
2023/08/07 10:55:16;;;;;;;11.53;11.23;;;17.60;99.90;;;;;;4889348;29;20447;-83
2023/08/07 10:57:48;;;;;;;12.13;11.73;;;17.50;99.90;;;;;;4886357;29;20454;-80
2023/08/07 11:00:17;;;;;;;11.80;11.40;;;17.50;99.90;;;;;;4883641;29;20996;-81
2023/08/07 11:02:50;;;;;;;12.37;12.07;;;17.40;99.90;;;;;;4885054;29;21086;-82
2023/08/07 11:05:26;;;;;;;12.20;11.80;;;17.60;99.90;;;;;;4900773;29;20467;-82
2023/08/07 11:07:57;;;;;;;12.50;12.17;;;17.90;99.90;;;;;;4885627;29;20467;-79
2023/08/07 11:10:30;;;;;;;12.03;11.73;;;18.00;99.90;;;;;;4890334;29;20458;-81
2023/08/07 11:13:08;;;;;;;11.70;11.40;;;17.90;99.90;;;;;;4883343;29;20523;-79
2023/08/07 11:15:37;;;;;;;11.90;11.60;;;17.80;99.90;;;;;;4879247;29;20558;-83
2023/08/07 11:18:09;;;;;;;12.17;11.77;;;17.80;99.90;;;;;;4887060;29;20469;-82
2023/08/07 11:20:45;;;;;;;12.43;12.00;;;17.70;99.90;;;;;;4883384;29;20505;-80
2023/08/07 11:23:27;;;;;;;12.20;11.90;;;17.60;99.90;;;;;;4882082;29;20557;-82
2023/08/07 11:25:58;;;;;;;12.40;12.10;;;17.60;99.90;;;;;;4882546;29;20488;-80
2023/08/07 11:28:30;;;;;;;11.93;11.63;;;17.50;99.90;;;;;;4883141;29;20506;-80
2023/08/07 11:30:58;;;;;;;12.20;11.90;;;17.60;99.90;;;;;;4883249;29;20465;-81
2023/08/07 11:33:28;;;;;;;12.20;11.80;;;17.70;99.90;;;;;;4886372;29;20873;-81
2023/08/07 11:35:58;;;;;;;11.83;11.53;;;17.80;99.90;;;;;;4894083;29;20612;-82
2023/08/07 11:38:31;;;;;;;11.90;11.60;;;17.60;99.90;;;;;;4880342;28;20888;-81
2023/08/07 11:41:04;;;;;;;11.90;11.60;;;17.50;99.90;;;;;;4897836;29;20489;-82
2023/08/07 11:43:33;;;;;;;12.80;12.30;;;17.50;99.90;;;;;;4881457;29;20501;-82
2023/08/07 11:46:05;;;;;;;11.47;11.10;;;17.30;99.90;;;;;;4887277;29;20497;-82
2023/08/07 11:48:35;;;;;;;11.63;11.37;;;17.20;99.90;;;;;;4879675;29;20481;-81
2023/08/07 11:51:11;;;;;;;11.33;11.00;;;17.20;99.90;;;;;;4881615;29;20468;-80
2023/08/07 11:53:44;;;;;;;11.93;11.63;;;17.10;99.90;;;;;;4879073;29;20492;-80
2023/08/07 11:56:15;;;;;;;11.73;11.43;;;17.00;99.90;;;;;;4875501;29;20493;-81
2023/08/07 11:58:46;;;;;;;11.10;10.90;;;17.00;99.90;;;;;;4875029;29;20512;-81
2023/08/07 12:01:19;;;;;;;11.50;11.20;;;17.00;99.90;;;;;;4875958;29;21010;-80
2023/08/07 12:03:55;;;;;;;11.93;11.53;;;17.00;99.90;;;;;;4874494;29;21012;-84
2023/08/07 12:06:29;;;;;;;11.40;11.10;;;17.00;99.90;;;;;;4876518;29;20476;-82
2023/08/07 12:09:01;;;;;;;11.53;11.13;;;16.90;99.90;;;;;;4880909;29;20919;-80
2023/08/07 12:11:34;;;;;;;11.47;11.07;;;16.80;99.90;;;;;;4888619;29;20462;-81
2023/08/07 12:14:03;;;;;;;12.07;11.77;;;16.80;99.90;;;;;;4890729;29;20669;-82
2023/08/07 12:16:34;;;;;;;12.53;12.03;;;16.90;99.90;;;;;;4890542;29;20453;-82
2023/08/07 12:19:08;;;;;;;13.20;12.60;;;16.80;99.90;;;;;;4887432;29;20493;-81
2023/08/07 12:21:39;;;;;;;13.10;12.60;;;16.80;99.90;;;;;;4886470;29;20544;-80
2023/08/07 12:24:10;;;;;;;13.50;13.00;;;16.80;99.90;;;;;;4874346;29;20450;-80
2023/08/07 12:26:39;;;;;;;12.90;12.53;;;16.70;99.90;;;;;;4881484;29;20606;-79
2023/08/07 12:29:11;;;;;;;12.87;12.47;;;16.70;99.90;;;;;;4884025;29;20802;-79
2023/08/07 12:31:42;;;;;;;12.90;12.50;;;16.70;99.90;;;;;;4882976;29;20999;-79
2023/08/07 12:34:17;;;;;;;13.33;12.83;;;16.80;99.90;;;;;;4882358;29;20493;-80
2023/08/07 12:36:52;;;;;;;13.50;13.10;;;16.80;1.00;;;;;;4884657;29;20509;-79
2023/08/07 12:39:21;;;;;;;13.80;13.50;;;16.90;1.00;;;;;;4881542;29;20474;-79
2023/08/07 12:42:12;;;;;;;13.97;13.47;;;16.90;99.90;;;;;;4881932;29;20585;-79
2023/08/07 12:44:44;;;;;;;13.97;13.60;;;16.90;99.90;;;;;;4883271;29;20488;-79
2023/08/07 12:47:12;;;;;;;13.63;13.23;;;17.00;99.90;;;;;;4881798;29;20493;-80
2023/08/07 12:49:47;;;;;;;13.50;13.00;;;16.90;99.90;;;;;;4874539;29;20510;-79
2023/08/07 12:52:17;;;;;;;13.20;12.80;;;16.90;99.90;;;;;;4879933;29;20481;-79
2023/08/07 12:54:52;;;;;;;13.10;12.80;;;16.90;99.90;;;;;;4887691;29;20569;-79
2023/08/07 12:57:20;;;;;;;13.57;13.17;;;16.80;99.90;;;;;;4881995;29;20488;-78
2023/08/07 12:59:50;;;;;;;13.40;13.00;;;16.90;99.90;;;;;;4871615;29;21055;-78
2023/08/07 13:02:20;;;;;;;13.97;13.57;;;16.90;99.90;;;;;;4885501;29;20742;-78